sensor_id;sensor_type;location;lat;lon;timestamp;temperature;humidity
40696;DHT22;40425;51.102;17.208;2022-09-17T00:03:50;9.00;99.90
40696;DHT22;40425;51.102;17.208;2022-09-17T00:08:52;9.00;99.90
40696;DHT22;40425;51.102;17.208;2022-09-17T00:13:54;8.90;99.90
40696;DHT22;40425;51.102;17.208;2022-09-17T00:18:56;8.80;99.90
40696;DHT22;40425;51.102;17.208;2022-09-17T00:23:59;8.70;99.90
40696;DHT22;40425;51.102;17.208;2022-09-17T00:29:01;8.70;99.90
40696;DHT22;40425;51.102;17.208;2022-09-17T00:34:03;8.70;99.90
40696;DHT22;40425;51.102;17.208;2022-09-17T00:39:07;8.70;99.90
40696;DHT22;40425;51.102;17.208;2022-09-17T00:44:39;8.70;99.90
40696;DHT22;40425;51.102;17.208;2022-09-17T00:49:40;8.80;99.90
40696;DHT22;40425;51.102;17.208;2022-09-17T00:54:47;8.70;99.90
40696;DHT22;40425;51.102;17.208;2022-09-17T00:59:49;8.80;99.90
40696;DHT22;40425;51.102;17.208;2022-09-17T01:04:50;8.80;99.90
40696;DHT22;40425;51.102;17.208;2022-09-17T01:43:03;8.70;99.90
40696;DHT22;40425;51.102;17.208;2022-09-17T01:48:28;8.60;99.90
40696;DHT22;40425;51.102;17.208;2022-09-17T01:59:43;8.50;99.90
40696;DHT22;40425;51.102;17.208;2022-09-17T02:04:35;8.50;99.90
40696;DHT22;40425;51.102;17.208;2022-09-17T02:09:43;8.50;99.90
40696;DHT22;40425;51.102;17.208;2022-09-17T02:14:50;8.50;99.90
40696;DHT22;40425;51.102;17.208;2022-09-17T02:19:53;8.50;99.90
40696;DHT22;40425;51.102;17.208;2022-09-17T02:25:07;8.60;99.90
40696;DHT22;40425;51.102;17.208;2022-09-17T02:30:10;8.70;99.90
40696;DHT22;40425;51.102;17.208;2022-09-17T02:35:12;8.80;99.90
40696;DHT22;40425;51.102;17.208;2022-09-17T02:40:15;8.80;99.90
40696;DHT22;40425;51.102;17.208;2022-09-17T03:01:16;9.10;99.90
40696;DHT22;40425;51.102;17.208;2022-09-17T03:06:18;9.30;99.90
40696;DHT22;40425;51.102;17.208;2022-09-17T03:11:18;9.40;99.90
40696;DHT22;40425;51.102;17.208;2022-09-17T03:16:21;9.50;99.90
40696;DHT22;40425;51.102;17.208;2022-09-17T03:21:21;9.70;99.90
40696;DHT22;40425;51.102;17.208;2022-09-17T03:26:22;9.90;99.90
40696;DHT22;40425;51.102;17.208;2022-09-17T03:31:23;10.00;99.90
40696;DHT22;40425;51.102;17.208;2022-09-17T03:36:24;10.10;99.90
40696;DHT22;40425;51.102;17.208;2022-09-17T03:41:25;10.10;99.90
40696;DHT22;40425;51.102;17.208;2022-09-17T03:46:26;10.20;99.90
40696;DHT22;40425;51.102;17.208;2022-09-17T03:51:27;10.20;99.90
40696;DHT22;40425;51.102;17.208;2022-09-17T03:56:28;10.20;99.90
40696;DHT22;40425;51.102;17.208;2022-09-17T04:01:29;10.30;99.90
40696;DHT22;40425;51.102;17.208;2022-09-17T04:06:30;10.30;99.90
40696;DHT22;40425;51.102;17.208;2022-09-17T04:11:31;10.40;99.90
40696;DHT22;40425;51.102;17.208;2022-09-17T04:16:32;10.40;99.90
40696;DHT22;40425;51.102;17.208;2022-09-17T04:21:33;10.50;99.90
40696;DHT22;40425;51.102;17.208;2022-09-17T04:26:33;10.50;99.90
40696;DHT22;40425;51.102;17.208;2022-09-17T04:31:35;10.50;99.90
40696;DHT22;40425;51.102;17.208;2022-09-17T04:36:35;10.60;99.90
40696;DHT22;40425;51.102;17.208;2022-09-17T04:41:36;10.60;99.90
40696;DHT22;40425;51.102;17.208;2022-09-17T04:46:37;10.60;99.90
40696;DHT22;40425;51.102;17.208;2022-09-17T04:51:38;10.70;99.90
40696;DHT22;40425;51.102;17.208;2022-09-17T04:56:39;10.70;99.90
40696;DHT22;40425;51.102;17.208;2022-09-17T05:01:40;10.80;99.90
40696;DHT22;40425;51.102;17.208;2022-09-17T05:06:42;10.90;99.90
40696;DHT22;40425;51.102;17.208;2022-09-17T05:11:43;10.90;99.90
40696;DHT22;40425;51.102;17.208;2022-09-17T05:16:44;11.00;99.90
40696;DHT22;40425;51.102;17.208;2022-09-17T05:21:45;11.10;99.90
40696;DHT22;40425;51.102;17.208;2022-09-17T05:26:46;11.30;99.90
40696;DHT22;40425;51.102;17.208;2022-09-17T05:31:47;11.40;99.90
40696;DHT22;40425;51.102;17.208;2022-09-17T05:36:48;11.50;99.90
40696;DHT22;40425;51.102;17.208;2022-09-17T05:41:49;11.60;99.90
40696;DHT22;40425;51.102;17.208;2022-09-17T05:46:52;11.80;99.90
40696;DHT22;40425;51.102;17.208;2022-09-17T05:51:52;11.80;99.90
40696;DHT22;40425;51.102;17.208;2022-09-17T05:56:53;11.90;99.90
40696;DHT22;40425;51.102;17.208;2022-09-17T06:01:54;12.10;99.90
40696;DHT22;40425;51.102;17.208;2022-09-17T06:06:55;12.10;99.90
40696;DHT22;40425;51.102;17.208;2022-09-17T06:11:56;12.20;99.90
40696;DHT22;40425;51.102;17.208;2022-09-17T06:16:57;12.20;99.90
40696;DHT22;40425;51.102;17.208;2022-09-17T06:21:57;12.20;99.90
40696;DHT22;40425;51.102;17.208;2022-09-17T06:26:58;12.30;99.90
40696;DHT22;40425;51.102;17.208;2022-09-17T06:31:59;12.30;99.90
40696;DHT22;40425;51.102;17.208;2022-09-17T06:37:02;12.30;99.90
40696;DHT22;40425;51.102;17.208;2022-09-17T06:42:03;12.50;99.90
40696;DHT22;40425;51.102;17.208;2022-09-17T06:47:04;12.50;99.90
40696;DHT22;40425;51.102;17.208;2022-09-17T06:52:05;12.50;99.90
40696;DHT22;40425;51.102;17.208;2022-09-17T06:57:06;12.50;99.90
40696;DHT22;40425;51.102;17.208;2022-09-17T07:02:07;12.60;99.90
40696;DHT22;40425;51.102;17.208;2022-09-17T07:07:08;12.70;99.90
40696;DHT22;40425;51.102;17.208;2022-09-17T07:12:10;12.80;99.90
40696;DHT22;40425;51.102;17.208;2022-09-17T07:17:10;12.90;99.90
40696;DHT22;40425;51.102;17.208;2022-09-17T07:22:11;13.20;99.90
40696;DHT22;40425;51.102;17.208;2022-09-17T07:27:13;13.50;99.90
40696;DHT22;40425;51.102;17.208;2022-09-17T07:32:14;13.70;99.90
40696;DHT22;40425;51.102;17.208;2022-09-17T07:37:15;13.80;99.90
40696;DHT22;40425;51.102;17.208;2022-09-17T07:42:16;14.00;99.90
40696;DHT22;40425;51.102;17.208;2022-09-17T07:47:17;13.90;99.90
40696;DHT22;40425;51.102;17.208;2022-09-17T07:52:19;14.10;99.90
40696;DHT22;40425;51.102;17.208;2022-09-17T07:57:20;14.20;99.90
40696;DHT22;40425;51.102;17.208;2022-09-17T08:02:21;14.10;99.90
40696;DHT22;40425;51.102;17.208;2022-09-17T08:07:22;14.10;99.90
40696;DHT22;40425;51.102;17.208;2022-09-17T08:12:23;14.20;99.90
40696;DHT22;40425;51.102;17.208;2022-09-17T08:17:24;14.30;99.90
40696;DHT22;40425;51.102;17.208;2022-09-17T08:22:24;14.40;99.90
40696;DHT22;40425;51.102;17.208;2022-09-17T08:27:26;14.40;99.90
40696;DHT22;40425;51.102;17.208;2022-09-17T08:32:28;14.40;99.90
40696;DHT22;40425;51.102;17.208;2022-09-17T08:37:29;14.40;99.90
40696;DHT22;40425;51.102;17.208;2022-09-17T08:42:36;14.30;99.90
40696;DHT22;40425;51.102;17.208;2022-09-17T08:47:41;14.30;99.90
40696;DHT22;40425;51.102;17.208;2022-09-17T08:52:52;14.50;99.90
40696;DHT22;40425;51.102;17.208;2022-09-17T09:03:31;14.70;99.90
40696;DHT22;40425;51.102;17.208;2022-09-17T09:08:55;14.90;99.90
40696;DHT22;40425;51.102;17.208;2022-09-17T09:14:15;14.90;99.90
40696;DHT22;40425;51.102;17.208;2022-09-17T09:19:21;15.00;99.90
40696;DHT22;40425;51.102;17.208;2022-09-17T09:24:24;15.10;99.90
40696;DHT22;40425;51.102;17.208;2022-09-17T09:34:50;15.30;99.90
40696;DHT22;40425;51.102;17.208;2022-09-17T09:39:59;15.30;99.90
40696;DHT22;40425;51.102;17.208;2022-09-17T09:45:13;15.20;99.90
40696;DHT22;40425;51.102;17.208;2022-09-17T09:50:46;15.50;99.90
40696;DHT22;40425;51.102;17.208;2022-09-17T09:56:30;15.90;99.90
40696;DHT22;40425;51.102;17.208;2022-09-17T10:01:35;15.50;99.90
40696;DHT22;40425;51.102;17.208;2022-09-17T10:06:39;15.40;99.90
40696;DHT22;40425;51.102;17.208;2022-09-17T10:11:40;15.50;99.90
40696;DHT22;40425;51.102;17.208;2022-09-17T10:16:41;15.40;99.90
40696;DHT22;40425;51.102;17.208;2022-09-17T10:21:43;15.50;99.90
40696;DHT22;40425;51.102;17.208;2022-09-17T10:26:43;15.30;99.90
40696;DHT22;40425;51.102;17.208;2022-09-17T10:31:52;15.30;99.90
40696;DHT22;40425;51.102;17.208;2022-09-17T10:36:54;15.60;99.90
40696;DHT22;40425;51.102;17.208;2022-09-17T10:42:02;16.00;99.90
40696;DHT22;40425;51.102;17.208;2022-09-17T10:52:54;15.60;99.90
40696;DHT22;40425;51.102;17.208;2022-09-17T11:08:30;15.30;99.90
40696;DHT22;40425;51.102;17.208;2022-09-17T11:14:12;15.30;99.90
40696;DHT22;40425;51.102;17.208;2022-09-17T11:29:59;16.50;99.90
40696;DHT22;40425;51.102;17.208;2022-09-17T11:35:11;16.80;99.90
40696;DHT22;40425;51.102;17.208;2022-09-17T11:40:23;16.70;99.90
40696;DHT22;40425;51.102;17.208;2022-09-17T11:45:37;16.80;99.90
40696;DHT22;40425;51.102;17.208;2022-09-17T11:50:49;16.60;99.90
40696;DHT22;40425;51.102;17.208;2022-09-17T12:01:35;16.40;99.90
40696;DHT22;40425;51.102;17.208;2022-09-17T12:06:43;16.70;99.90
40696;DHT22;40425;51.102;17.208;2022-09-17T12:17:02;16.80;99.90
40696;DHT22;40425;51.102;17.208;2022-09-17T12:22:23;17.00;99.90
40696;DHT22;40425;51.102;17.208;2022-09-17T12:27:40;17.10;99.90
40696;DHT22;40425;51.102;17.208;2022-09-17T12:38:14;17.00;99.90
40696;DHT22;40425;51.102;17.208;2022-09-17T12:59:53;16.60;99.90
40696;DHT22;40425;51.102;17.208;2022-09-17T13:05:22;16.80;99.90
40696;DHT22;40425;51.102;17.208;2022-09-17T13:15:55;17.10;99.90
40696;DHT22;40425;51.102;17.208;2022-09-17T13:21:22;17.20;99.90
40696;DHT22;40425;51.102;17.208;2022-09-17T13:26:35;17.20;99.90
40696;DHT22;40425;51.102;17.208;2022-09-17T13:36:41;17.50;99.90
40696;DHT22;40425;51.102;17.208;2022-09-17T13:41:43;17.70;99.90
40696;DHT22;40425;51.102;17.208;2022-09-17T13:46:44;17.60;99.90
40696;DHT22;40425;51.102;17.208;2022-09-17T13:51:46;17.60;99.90
40696;DHT22;40425;51.102;17.208;2022-09-17T13:56:52;17.80;99.90
40696;DHT22;40425;51.102;17.208;2022-09-17T14:02:27;17.60;99.90
40696;DHT22;40425;51.102;17.208;2022-09-17T14:17:48;15.90;99.90
40696;DHT22;40425;51.102;17.208;2022-09-17T14:23:00;14.50;99.90
40696;DHT22;40425;51.102;17.208;2022-09-17T14:33:30;14.30;99.90
40696;DHT22;40425;51.102;17.208;2022-09-17T14:38:37;14.30;99.90
40696;DHT22;40425;51.102;17.208;2022-09-17T14:44:19;14.30;99.90
40696;DHT22;40425;51.102;17.208;2022-09-17T14:49:34;14.70;99.90
40696;DHT22;40425;51.102;17.208;2022-09-17T14:54:35;15.00;99.90
40696;DHT22;40425;51.102;17.208;2022-09-17T14:59:46;14.80;99.90
40696;DHT22;40425;51.102;17.208;2022-09-17T15:04:49;14.60;99.90
40696;DHT22;40425;51.102;17.208;2022-09-17T15:09:49;15.10;99.90
40696;DHT22;40425;51.102;17.208;2022-09-17T15:14:56;15.70;99.90
40696;DHT22;40425;51.102;17.208;2022-09-17T15:19:57;16.10;99.90
40696;DHT22;40425;51.102;17.208;2022-09-17T15:25:08;16.20;99.90
40696;DHT22;40425;51.102;17.208;2022-09-17T15:30:19;16.40;99.90
40696;DHT22;40425;51.102;17.208;2022-09-17T15:35:24;16.20;99.90
40696;DHT22;40425;51.102;17.208;2022-09-17T15:40:31;15.90;99.90
40696;DHT22;40425;51.102;17.208;2022-09-17T15:45:34;15.70;99.90
40696;DHT22;40425;51.102;17.208;2022-09-17T15:50:52;15.50;99.90
40696;DHT22;40425;51.102;17.208;2022-09-17T16:06:37;14.20;99.90
40696;DHT22;40425;51.102;17.208;2022-09-17T16:11:38;13.50;99.90
40696;DHT22;40425;51.102;17.208;2022-09-17T16:16:43;12.60;99.90
40696;DHT22;40425;51.102;17.208;2022-09-17T16:21:45;12.40;99.90
40696;DHT22;40425;51.102;17.208;2022-09-17T16:26:46;12.40;99.90
40696;DHT22;40425;51.102;17.208;2022-09-17T16:31:48;12.50;99.90
40696;DHT22;40425;51.102;17.208;2022-09-17T16:36:50;12.60;99.90
40696;DHT22;40425;51.102;17.208;2022-09-17T16:41:50;12.60;99.90
40696;DHT22;40425;51.102;17.208;2022-09-17T16:46:51;12.70;99.90
40696;DHT22;40425;51.102;17.208;2022-09-17T16:51:52;12.90;99.90
40696;DHT22;40425;51.102;17.208;2022-09-17T16:56:54;13.00;99.90
40696;DHT22;40425;51.102;17.208;2022-09-17T17:01:55;12.90;99.90
40696;DHT22;40425;51.102;17.208;2022-09-17T17:06:56;12.80;99.90
40696;DHT22;40425;51.102;17.208;2022-09-17T17:11:57;12.80;99.90
40696;DHT22;40425;51.102;17.208;2022-09-17T17:16:57;12.70;99.90
40696;DHT22;40425;51.102;17.208;2022-09-17T17:21:59;12.60;99.90
40696;DHT22;40425;51.102;17.208;2022-09-17T17:27:00;12.60;99.90
40696;DHT22;40425;51.102;17.208;2022-09-17T17:32:02;12.70;99.90
40696;DHT22;40425;51.102;17.208;2022-09-17T17:37:03;12.70;99.90
40696;DHT22;40425;51.102;17.208;2022-09-17T17:42:04;12.60;99.90
40696;DHT22;40425;51.102;17.208;2022-09-17T17:47:05;12.60;99.90
40696;DHT22;40425;51.102;17.208;2022-09-17T17:52:06;12.50;99.90
40696;DHT22;40425;51.102;17.208;2022-09-17T17:57:07;12.50;99.90
40696;DHT22;40425;51.102;17.208;2022-09-17T18:02:10;12.40;99.90
40696;DHT22;40425;51.102;17.208;2022-09-17T18:07:11;12.30;99.90
40696;DHT22;40425;51.102;17.208;2022-09-17T18:12:13;12.10;99.90
40696;DHT22;40425;51.102;17.208;2022-09-17T18:17:14;12.10;99.90
40696;DHT22;40425;51.102;17.208;2022-09-17T18:22:16;12.10;99.90
40696;DHT22;40425;51.102;17.208;2022-09-17T18:27:18;12.10;99.90
40696;DHT22;40425;51.102;17.208;2022-09-17T18:32:19;12.10;99.90
40696;DHT22;40425;51.102;17.208;2022-09-17T18:37:20;12.20;99.90
40696;DHT22;40425;51.102;17.208;2022-09-17T18:42:23;12.20;99.90
40696;DHT22;40425;51.102;17.208;2022-09-17T18:47:24;12.10;99.90
40696;DHT22;40425;51.102;17.208;2022-09-17T18:52:25;12.10;99.90
40696;DHT22;40425;51.102;17.208;2022-09-17T18:57:26;12.10;99.90
40696;DHT22;40425;51.102;17.208;2022-09-17T19:02:27;12.10;99.90
40696;DHT22;40425;51.102;17.208;2022-09-17T19:07:28;12.10;99.90
40696;DHT22;40425;51.102;17.208;2022-09-17T19:12:29;12.10;99.90
40696;DHT22;40425;51.102;17.208;2022-09-17T19:17:30;12.10;99.90
40696;DHT22;40425;51.102;17.208;2022-09-17T19:22:31;12.10;99.90
40696;DHT22;40425;51.102;17.208;2022-09-17T19:27:32;12.10;99.90
40696;DHT22;40425;51.102;17.208;2022-09-17T19:32:33;12.10;99.90
40696;DHT22;40425;51.102;17.208;2022-09-17T19:37:34;12.00;99.90
40696;DHT22;40425;51.102;17.208;2022-09-17T19:42:35;12.00;99.90
40696;DHT22;40425;51.102;17.208;2022-09-17T19:47:36;11.90;99.90
40696;DHT22;40425;51.102;17.208;2022-09-17T19:52:37;11.80;99.90
40696;DHT22;40425;51.102;17.208;2022-09-17T19:57:38;11.60;99.90
40696;DHT22;40425;51.102;17.208;2022-09-17T20:02:39;11.50;99.90
40696;DHT22;40425;51.102;17.208;2022-09-17T20:07:40;11.40;99.90
40696;DHT22;40425;51.102;17.208;2022-09-17T20:12:42;11.30;99.90
40696;DHT22;40425;51.102;17.208;2022-09-17T20:17:43;11.20;99.90
40696;DHT22;40425;51.102;17.208;2022-09-17T20:22:45;11.10;99.90
40696;DHT22;40425;51.102;17.208;2022-09-17T20:27:47;11.00;99.90
40696;DHT22;40425;51.102;17.208;2022-09-17T20:32:48;10.90;99.90
40696;DHT22;40425;51.102;17.208;2022-09-17T20:37:49;10.80;99.90
40696;DHT22;40425;51.102;17.208;2022-09-17T20:42:50;10.80;99.90
40696;DHT22;40425;51.102;17.208;2022-09-17T20:47:51;10.70;99.90
40696;DHT22;40425;51.102;17.208;2022-09-17T20:52:52;10.60;99.90
40696;DHT22;40425;51.102;17.208;2022-09-17T20:57:53;10.50;99.90
40696;DHT22;40425;51.102;17.208;2022-09-17T21:02:54;10.50;99.90
40696;DHT22;40425;51.102;17.208;2022-09-17T21:07:56;10.40;99.90
40696;DHT22;40425;51.102;17.208;2022-09-17T21:12:56;10.40;99.90
40696;DHT22;40425;51.102;17.208;2022-09-17T21:17:58;10.40;99.90
40696;DHT22;40425;51.102;17.208;2022-09-17T21:22:59;10.40;99.90
40696;DHT22;40425;51.102;17.208;2022-09-17T21:27:59;10.40;99.90
40696;DHT22;40425;51.102;17.208;2022-09-17T21:33:00;10.30;99.90
40696;DHT22;40425;51.102;17.208;2022-09-17T21:38:01;10.30;99.90
40696;DHT22;40425;51.102;17.208;2022-09-17T21:43:05;10.30;99.90
40696;DHT22;40425;51.102;17.208;2022-09-17T21:48:08;10.30;99.90
40696;DHT22;40425;51.102;17.208;2022-09-17T21:53:09;10.30;99.90
40696;DHT22;40425;51.102;17.208;2022-09-17T21:58:10;10.30;99.90
40696;DHT22;40425;51.102;17.208;2022-09-17T22:03:10;10.30;99.90
40696;DHT22;40425;51.102;17.208;2022-09-17T22:08:11;10.30;99.90
40696;DHT22;40425;51.102;17.208;2022-09-17T22:13:12;10.20;99.90
40696;DHT22;40425;51.102;17.208;2022-09-17T22:18:13;10.20;99.90
40696;DHT22;40425;51.102;17.208;2022-09-17T22:23:14;10.30;99.90
40696;DHT22;40425;51.102;17.208;2022-09-17T22:28:15;10.20;99.90
40696;DHT22;40425;51.102;17.208;2022-09-17T22:33:17;10.20;99.90
40696;DHT22;40425;51.102;17.208;2022-09-17T22:38:18;10.10;99.90
40696;DHT22;40425;51.102;17.208;2022-09-17T22:43:18;10.00;99.90
40696;DHT22;40425;51.102;17.208;2022-09-17T22:48:19;10.00;99.90
40696;DHT22;40425;51.102;17.208;2022-09-17T22:53:20;9.90;99.90
40696;DHT22;40425;51.102;17.208;2022-09-17T22:58:21;9.80;99.90
40696;DHT22;40425;51.102;17.208;2022-09-17T23:03:26;9.80;99.90
40696;DHT22;40425;51.102;17.208;2022-09-17T23:08:28;9.80;99.90
40696;DHT22;40425;51.102;17.208;2022-09-17T23:13:29;9.70;99.90
40696;DHT22;40425;51.102;17.208;2022-09-17T23:18:31;9.60;99.90
40696;DHT22;40425;51.102;17.208;2022-09-17T23:23:33;9.60;99.90
40696;DHT22;40425;51.102;17.208;2022-09-17T23:28:35;9.50;99.90
40696;DHT22;40425;51.102;17.208;2022-09-17T23:33:37;9.50;99.90
40696;DHT22;40425;51.102;17.208;2022-09-17T23:38:39;9.50;99.90
40696;DHT22;40425;51.102;17.208;2022-09-17T23:43:42;9.50;99.90
40696;DHT22;40425;51.102;17.208;2022-09-17T23:48:43;9.50;99.90
40696;DHT22;40425;51.102;17.208;2022-09-17T23:53:44;9.40;99.90
40696;DHT22;40425;51.102;17.208;2022-09-17T23:58:45;9.40;99.90
